EEL RIVER CAMP CA US current weather conditions

sailwx.info

Wind from 194 at 5 knots gusting 10

Air temperature 35.0° C
Dewpoint 13.2° C

Last reported at 2016-Jul-31 00:28 UTC.
Time now 2016-Jul-31 01:45 UTC

Location: N 40°08' W 123°49'.
View on Google Maps.

See reports from other nearby stations

  
Tides and Currents Weather Stations Pressure Air Temp Water Temp Dewpoint Dewpoint Depression Visibility Wind Speed Wind Dir Waves Ship Positions
date/time (UTC)wind fromknots sea level pressurealtimeterstation pressurevisibilityair tempwater tempwave heightnotes
2016-Jul-31 00:28 194 5 gusting 10 35.0
2016-Jul-30 23:28 175 6 gusting 12 36.1
2016-Jul-30 22:28 183 6 gusting 10 37.2
2016-Jul-30 21:28 189 6 gusting 9 37.2
2016-Jul-30 20:28 166 2 gusting 7 37.8
2016-Jul-30 19:28 125 2 gusting 7 35.6
2016-Jul-30 18:28 185 2 gusting 6 32.2
2016-Jul-30 17:28 049 1 gusting 3 28.9
2016-Jul-30 16:28 122 1 gusting 3 25.0
2016-Jul-30 15:28 069 1 gusting 2 21.7
2016-Jul-30 14:28 021 0 gusting 2 17.2
2016-Jul-30 13:28 316 1 gusting 1 15.0
2016-Jul-30 12:28 302 0 gusting 2 15.6
2016-Jul-30 11:28 312 0 gusting 1 16.1
2016-Jul-30 10:28 337 0 gusting 1 17.2
2016-Jul-30 09:28 17.8
2016-Jul-30 08:28 310 1 gusting 2 18.9
2016-Jul-30 07:28 298 0 gusting 2 20.0
2016-Jul-30 06:28 312 0 gusting 2 21.7
2016-Jul-30 05:28 317 1 gusting 4 23.9
2016-Jul-30 04:28 331 1 gusting 4 25.6
2016-Jul-30 03:28 098 3 gusting 8 31.1
2016-Jul-30 02:28 120 3 gusting 8 36.1
2016-Jul-30 01:28 156 4 gusting 11 38.3
2016-Jul-30 00:28 170 6 gusting 11 38.9
2016-Jul-29 23:28 151 6 gusting 11 40.0
2016-Jul-29 22:28 198 6 gusting 11 40.6
2016-Jul-29 21:28 168 6 gusting 11 40.6
2016-Jul-29 20:28 358 3 gusting 6 39.4
2016-Jul-29 19:28 271 2 gusting 5 37.2
2016-Jul-29 18:28 082 2 gusting 5 32.8
2016-Jul-29 17:28 206 2 gusting 4 28.9
2016-Jul-29 16:28 137 1 gusting 4 24.4
2016-Jul-29 15:28 003 0 gusting 2 21.1
2016-Jul-29 14:28 16.1
2016-Jul-29 13:28 13.9
2016-Jul-29 12:28 14.4
2016-Jul-29 11:28 15.0
2016-Jul-29 10:28 16.1
2016-Jul-29 09:28 16.7
2016-Jul-29 08:28 18.3
2016-Jul-29 07:28 321 1 gusting 2 19.4
2016-Jul-29 06:28 318 1 gusting 2 20.6
2016-Jul-29 05:28 22.2
2016-Jul-29 04:28 303 1 gusting 3 24.4
2016-Jul-29 03:28 077 3 gusting 9 30.6
2016-Jul-29 02:28 061 2 gusting 6 36.1
2016-Jul-29 01:28 157 6 gusting 9 37.8